createdAt,value
2023-04-19T00:00:39.846Z,8.15
2023-04-19T00:03:41.466Z,8.19
2023-04-19T00:06:43.052Z,8.28
2023-04-19T00:09:44.602Z,8.26
2023-04-19T00:12:46.226Z,8.32
2023-04-19T00:15:47.913Z,8.39
2023-04-19T00:18:49.462Z,8.32
2023-04-19T00:21:51.022Z,8.34
2023-04-19T00:24:53.158Z,8.28
2023-04-19T00:27:54.666Z,8.28
2023-04-19T00:30:56.330Z,8.23
2023-04-19T00:33:57.876Z,8.26
2023-04-19T00:36:59.420Z,8.42
2023-04-19T00:40:01.131Z,8.41
2023-04-19T00:43:02.816Z,8.40
2023-04-19T00:46:04.368Z,8.34
2023-04-19T00:49:06.220Z,8.41
2023-04-19T00:52:08.393Z,8.26
2023-04-19T00:55:10.109Z,8.32
2023-04-19T00:58:11.642Z,8.32
2023-04-19T01:01:13.228Z,8.35
2023-04-19T01:04:15.886Z,8.20
2023-04-19T01:07:18.071Z,8.34
2023-04-19T01:10:19.582Z,8.38
2023-04-19T01:13:21.085Z,8.38
2023-04-19T01:16:24.976Z,8.41
2023-04-19T01:19:26.845Z,8.41
2023-04-19T01:22:30.076Z,8.38
2023-04-19T01:25:31.604Z,8.35
2023-04-19T01:28:33.234Z,8.38
2023-04-19T01:31:34.849Z,8.23
2023-04-19T01:34:36.444Z,8.23
2023-04-19T01:37:38.049Z,8.31
2023-04-19T01:40:39.646Z,8.25
2023-04-19T01:43:41.123Z,8.15
2023-04-19T01:46:42.862Z,8.23
2023-04-19T01:49:44.510Z,8.20
2023-04-19T01:52:46.089Z,8.24
2023-04-19T01:55:47.623Z,8.26
2023-04-19T01:58:49.149Z,7.91
2023-04-19T02:01:50.914Z,8.21
2023-04-19T02:04:52.452Z,8.26
2023-04-19T02:07:53.961Z,8.28
2023-04-19T02:10:55.453Z,8.36
2023-04-19T02:13:57.089Z,8.29
2023-04-19T02:16:58.720Z,8.31
2023-04-19T02:20:00.341Z,8.35
2023-04-19T02:23:01.917Z,8.40
2023-04-19T02:26:03.484Z,8.25
2023-04-19T02:29:06.729Z,8.41
2023-04-19T02:32:08.674Z,8.39
2023-04-19T02:35:10.237Z,8.47
2023-04-19T02:38:11.787Z,8.32
2023-04-19T02:41:13.357Z,8.32
2023-04-19T02:44:15.045Z,8.25
2023-04-19T02:47:16.895Z,8.20
2023-04-19T02:50:18.452Z,8.26
2023-04-19T02:53:19.956Z,8.26
2023-04-19T02:56:21.479Z,8.30
2023-04-19T02:59:23.046Z,8.32
2023-04-19T03:02:25.492Z,8.29
2023-04-19T03:05:27.153Z,8.29
2023-04-19T03:08:28.808Z,8.34
2023-04-19T03:11:30.384Z,8.38
2023-04-19T03:14:33.841Z,8.36
2023-04-19T03:17:35.977Z,8.30
2023-04-19T03:20:37.558Z,8.23
2023-04-19T03:23:39.102Z,8.35
2023-04-19T03:26:40.747Z,8.41
2023-04-19T03:29:42.338Z,8.40
2023-04-19T03:32:44.054Z,8.38
2023-04-19T03:35:46.029Z,8.41
2023-04-19T03:38:47.522Z,8.22
2023-04-19T03:41:49.062Z,8.33
2023-04-19T03:44:50.609Z,8.33
2023-04-19T03:47:52.192Z,8.40
2023-04-19T03:50:53.727Z,8.40
2023-04-19T03:53:55.235Z,8.42
2023-04-19T03:56:57.138Z,8.40
2023-04-19T03:59:58.718Z,8.38
2023-04-19T04:03:00.417Z,8.42
2023-04-19T04:06:02.398Z,8.28
2023-04-19T04:09:06.116Z,8.38
2023-04-19T04:12:07.739Z,8.33
2023-04-19T04:15:10.185Z,8.27
2023-04-19T04:18:11.776Z,8.28
2023-04-19T04:21:13.453Z,8.34
2023-04-19T04:24:15.740Z,8.27
2023-04-19T04:27:21.228Z,8.23
2023-04-19T04:30:23.270Z,8.23
2023-04-19T04:33:27.585Z,8.22
2023-04-19T04:36:29.776Z,8.24
2023-04-19T04:39:31.390Z,8.20
2023-04-19T04:42:33.521Z,8.23
2023-04-19T04:45:35.547Z,8.23
2023-04-19T04:48:37.066Z,8.24
2023-04-19T04:51:38.584Z,8.20
2023-04-19T04:54:40.480Z,8.20
2023-04-19T04:57:42.050Z,8.11
2023-04-19T05:00:43.739Z,8.20
2023-04-19T05:03:45.735Z,8.18
2023-04-19T05:06:47.291Z,8.18
2023-04-19T05:09:48.845Z,8.17
2023-04-19T05:12:50.366Z,8.15
2023-04-19T05:15:51.953Z,8.07
2023-04-19T05:18:53.518Z,8.01
2023-04-19T05:21:55.079Z,8.31
2023-04-19T05:24:56.665Z,8.34
2023-04-19T05:27:58.188Z,8.35
2023-04-19T05:30:59.719Z,8.39
2023-04-19T05:34:01.348Z,8.37
2023-04-19T05:37:03.427Z,8.44
2023-04-19T05:40:05.987Z,8.40
2023-04-19T05:43:07.517Z,8.49
2023-04-19T05:46:09.089Z,8.25
2023-04-19T05:49:10.648Z,8.55
2023-04-19T05:52:12.210Z,8.63
2023-04-19T05:55:13.894Z,8.65
2023-04-19T05:58:15.720Z,8.68
2023-04-19T06:01:17.247Z,8.75
2023-04-19T06:04:19.264Z,8.77
2023-04-19T06:07:31.026Z,8.73
2023-04-19T06:10:48.784Z,8.64
2023-04-19T06:13:55.894Z,8.90
2023-04-19T06:16:57.445Z,8.88
2023-04-19T06:19:59.147Z,8.68
2023-04-19T06:23:00.739Z,8.88
2023-04-19T06:26:02.285Z,8.86
2023-04-19T06:29:04.331Z,9.05
2023-04-19T06:32:06.086Z,9.17
2023-04-19T06:35:08.261Z,9.34
2023-04-19T06:38:09.941Z,9.53
2023-04-19T06:41:11.593Z,9.65
2023-04-19T06:44:13.439Z,9.70
2023-04-19T06:47:15.196Z,9.76
2023-04-19T06:50:16.895Z,9.87
2023-04-19T06:53:18.425Z,9.85
2023-04-19T06:56:24.357Z,9.99
2023-04-19T06:59:28.280Z,9.97
2023-04-19T07:02:30.042Z,10.10
2023-04-19T07:05:31.782Z,9.99
2023-04-19T07:08:46.425Z,9.89
2023-04-19T07:11:51.429Z,9.88
2023-04-19T07:14:56.416Z,9.99
2023-04-19T07:17:58.093Z,10.11
2023-04-19T07:20:59.654Z,10.17
2023-04-19T07:24:01.233Z,10.14
2023-04-19T07:27:02.877Z,10.13
2023-04-19T07:30:04.720Z,10.05
2023-04-19T07:33:08.579Z,10.08
2023-04-19T07:36:10.546Z,10.17
2023-04-19T07:39:13.312Z,10.09
2023-04-19T07:42:14.853Z,10.24
2023-04-19T07:45:16.821Z,10.31
2023-04-19T07:48:20.969Z,10.38
2023-04-19T07:51:24.903Z,10.45
2023-04-19T07:54:26.459Z,10.39
2023-04-19T07:57:27.976Z,10.44
2023-04-19T08:00:35.664Z,10.37
2023-04-19T08:03:37.863Z,10.74
2023-04-19T08:06:39.944Z,10.91
2023-04-19T08:09:41.659Z,10.68
2023-04-19T08:12:50.731Z,10.88
2023-04-19T08:16:41.460Z,10.75
2023-04-19T08:19:26.516Z,10.83
2023-04-19T08:22:28.172Z,10.61
2023-04-19T08:25:29.956Z,10.55
2023-04-19T08:28:31.491Z,10.46
2023-04-19T08:31:33.016Z,10.74
2023-04-19T08:34:38.270Z,10.79
2023-04-19T08:37:39.844Z,10.87
2023-04-19T08:40:55.201Z,10.93
2023-04-19T08:43:57.114Z,11.38
2023-04-19T08:47:01.837Z,11.37
2023-04-19T08:50:17.547Z,11.34
2023-04-19T08:53:29.076Z,11.64
2023-04-19T08:56:35.437Z,11.93
2023-04-19T08:59:37.369Z,12.35
2023-04-19T09:02:52.083Z,12.56
2023-04-19T09:05:54.624Z,13.73
2023-04-19T09:12:27.134Z,13.64
2023-04-19T09:15:45.538Z,12.87
2023-04-19T09:19:02.519Z,12.95
2023-04-19T09:22:13.638Z,13.06
2023-04-19T09:25:41.918Z,12.66
2023-04-19T09:28:56.969Z,12.41
2023-04-19T09:32:01.323Z,12.22
2023-04-19T09:35:02.933Z,12.75
2023-04-19T09:38:06.948Z,12.64
2023-04-19T09:41:08.980Z,12.48
2023-04-19T09:44:44.540Z,12.69
2023-04-19T09:47:35.161Z,12.70
2023-04-19T09:50:46.749Z,12.99
2023-04-19T09:53:55.509Z,12.91
2023-04-19T09:56:58.383Z,12.83
2023-04-19T10:00:01.454Z,12.60
2023-04-19T10:03:03.018Z,12.76
2023-04-19T10:06:10.671Z,13.19
2023-04-19T10:09:18.397Z,13.45
2023-04-19T10:12:45.564Z,13.51
2023-04-19T10:15:49.947Z,12.99
2023-04-19T10:18:55.293Z,13.09
2023-04-19T10:21:56.924Z,13.23
2023-04-19T10:25:11.349Z,13.41
2023-04-19T10:28:12.924Z,13.85
2023-04-19T10:31:14.522Z,14.21
2023-04-19T10:34:17.740Z,14.09
2023-04-19T10:37:21.987Z,13.95
2023-04-19T10:40:51.867Z,13.98
2023-04-19T10:43:59.195Z,13.81
2023-04-19T10:47:00.734Z,13.61
2023-04-19T10:50:04.838Z,13.65
2023-04-19T10:53:45.506Z,13.66
2023-04-19T10:57:06.174Z,13.20
2023-04-19T11:00:25.733Z,13.25
2023-04-19T11:03:45.641Z,13.15
2023-04-19T11:06:53.601Z,12.71
2023-04-19T11:09:55.337Z,12.61
2023-04-19T11:12:56.948Z,13.02
2023-04-19T11:16:04.525Z,13.13
2023-04-19T11:19:06.053Z,12.95
2023-04-19T11:22:07.620Z,12.97
2023-04-19T11:25:10.589Z,13.20
2023-04-19T11:28:12.274Z,13.47
2023-04-19T11:31:13.848Z,13.66
2023-04-19T11:34:16.009Z,13.07
2023-04-19T11:37:17.761Z,12.83
2023-04-19T11:40:21.532Z,12.74
2023-04-19T11:43:23.035Z,12.68
2023-04-19T11:46:24.703Z,12.83
2023-04-19T11:49:27.984Z,12.56
2023-04-19T11:52:29.497Z,12.75
2023-04-19T11:55:33.206Z,13.01
2023-04-19T11:58:45.321Z,13.15
2023-04-19T12:01:46.928Z,13.08
2023-04-19T12:04:48.773Z,12.74
2023-04-19T12:08:06.644Z,12.68
2023-04-19T12:11:08.210Z,12.86
2023-04-19T12:14:16.976Z,12.53
2023-04-19T12:17:21.585Z,12.68
2023-04-19T12:20:30.303Z,12.93
2023-04-19T12:23:31.932Z,12.96
2023-04-19T12:26:34.623Z,13.23
2023-04-19T12:29:36.326Z,13.10
2023-04-19T12:32:37.891Z,13.01
2023-04-19T12:35:39.843Z,13.12
2023-04-19T12:38:41.579Z,13.06
2023-04-19T12:41:43.112Z,13.10
2023-04-19T12:44:44.649Z,13.33
2023-04-19T12:47:47.348Z,13.30
2023-04-19T12:50:48.964Z,12.98
2023-04-19T12:53:51.258Z,13.10
2023-04-19T12:56:52.850Z,13.17
2023-04-19T12:59:54.393Z,13.14
2023-04-19T13:02:56.273Z,13.01
2023-04-19T13:05:57.949Z,12.75
2023-04-19T13:09:01.037Z,12.66
2023-04-19T13:12:03.958Z,12.76
2023-04-19T13:15:06.036Z,12.47
2023-04-19T13:18:07.483Z,12.37
2023-04-19T13:21:09.065Z,12.44
2023-04-19T13:24:10.658Z,12.43
2023-04-19T13:27:12.303Z,12.53
2023-04-19T13:30:14.358Z,12.74
2023-04-19T13:33:16.033Z,12.62
2023-04-19T13:36:17.964Z,12.58
2023-04-19T13:39:19.531Z,12.74
2023-04-19T13:42:21.079Z,12.53
2023-04-19T13:45:22.702Z,12.17
2023-04-19T13:48:27.152Z,12.05
2023-04-19T13:51:38.806Z,11.94
2023-04-19T13:54:44.291Z,11.85
2023-04-19T13:57:45.851Z,11.98
2023-04-19T14:00:48.398Z,11.96
2023-04-19T14:03:50.135Z,11.96
2023-04-19T14:06:51.805Z,12.03
2023-04-19T14:09:53.471Z,11.85
2023-04-19T14:12:55.270Z,11.73
2023-04-19T14:15:56.885Z,11.71
2023-04-19T14:18:58.584Z,11.65
2023-04-19T14:22:00.307Z,11.54
2023-04-19T14:25:02.269Z,11.54
2023-04-19T14:28:03.996Z,11.61
2023-04-19T14:31:05.553Z,11.78
2023-04-19T14:34:07.122Z,11.80
2023-04-19T14:37:08.952Z,11.90
2023-04-19T14:40:11.179Z,11.88
2023-04-19T14:43:14.722Z,11.79
2023-04-19T14:46:16.271Z,11.84
2023-04-19T14:49:18.027Z,11.82
2023-04-19T14:52:19.699Z,11.68
2023-04-19T14:55:22.690Z,11.87
2023-04-19T14:58:24.276Z,11.77
2023-04-19T15:01:25.931Z,11.76
2023-04-19T15:04:27.643Z,11.62
2023-04-19T15:07:29.308Z,11.84
2023-04-19T15:10:31.002Z,11.91
2023-04-19T15:13:33.904Z,11.74
2023-04-19T15:16:35.908Z,11.76
2023-04-19T15:19:38.205Z,11.88
2023-04-19T15:22:39.833Z,11.80
2023-04-19T15:25:41.568Z,11.55
2023-04-19T15:28:43.119Z,11.63
2023-04-19T15:31:44.820Z,11.41
2023-04-19T15:34:46.449Z,11.40
2023-04-19T15:37:48.149Z,11.39
2023-04-19T15:40:49.821Z,11.22
2023-04-19T15:43:51.532Z,11.02
2023-04-19T15:46:53.158Z,10.97
2023-04-19T15:49:54.736Z,10.79
2023-04-19T15:52:56.423Z,10.71
2023-04-19T15:55:58.139Z,10.62
2023-04-19T15:58:59.822Z,10.70
2023-04-19T16:02:01.421Z,10.58
2023-04-19T16:05:03.328Z,10.47
2023-04-19T16:08:06.446Z,10.19
2023-04-19T16:11:08.014Z,10.28
2023-04-19T16:14:09.570Z,10.11
2023-04-19T16:17:11.122Z,10.02
2023-04-19T16:20:13.187Z,9.87
2023-04-19T16:23:17.138Z,9.87
2023-04-19T16:26:24.378Z,9.84
2023-04-19T16:29:26.118Z,9.82
2023-04-19T16:32:27.984Z,9.90
2023-04-19T16:35:33.679Z,9.87
2023-04-19T16:38:39.282Z,9.92
2023-04-19T16:42:01.171Z,9.89
2023-04-19T16:45:03.143Z,9.65
2023-04-19T16:48:07.384Z,9.54
2023-04-19T16:51:09.041Z,9.62
2023-04-19T16:54:10.722Z,9.15
2023-04-19T16:57:12.418Z,9.19
2023-04-19T17:00:14.679Z,9.57
2023-04-19T17:03:20.076Z,9.53
2023-04-19T17:06:24.112Z,9.69
2023-04-19T17:09:25.770Z,9.76
2023-04-19T17:12:27.321Z,9.77
2023-04-19T17:15:28.962Z,9.63
2023-04-19T17:18:30.679Z,9.28
2023-04-19T17:21:32.411Z,9.57
2023-04-19T17:24:34.141Z,9.50
2023-04-19T17:27:35.741Z,9.66
2023-04-19T17:30:37.359Z,9.63
2023-04-19T17:33:38.949Z,9.77
2023-04-19T17:36:42.106Z,9.69
2023-04-19T17:39:43.710Z,9.71
2023-04-19T17:42:45.277Z,9.71
2023-04-19T17:45:46.823Z,9.84
2023-04-19T17:48:48.447Z,9.76
2023-04-19T17:51:49.998Z,9.53
2023-04-19T17:54:51.565Z,9.56
2023-04-19T17:57:53.274Z,9.68
2023-04-19T18:00:54.802Z,9.56
2023-04-19T18:03:56.632Z,9.40
2023-04-19T18:06:58.377Z,9.54
2023-04-19T18:09:59.946Z,9.46
2023-04-19T18:13:01.541Z,9.51
2023-04-19T18:16:03.478Z,9.34
2023-04-19T18:19:05.233Z,9.12
2023-04-19T18:22:06.825Z,9.25
2023-04-19T18:25:08.903Z,9.25
2023-04-19T18:28:10.700Z,9.31
2023-04-19T18:31:12.205Z,9.36
2023-04-19T18:34:13.926Z,9.34
2023-04-19T18:37:16.224Z,9.34
2023-04-19T18:40:18.934Z,9.29
2023-04-19T18:43:20.561Z,9.22
2023-04-19T18:46:24.975Z,9.19
2023-04-19T18:49:26.599Z,8.98
2023-04-19T18:52:28.157Z,9.03
2023-04-19T18:55:31.088Z,8.87
2023-04-19T18:58:32.770Z,8.80
2023-04-19T19:01:34.388Z,8.92
2023-04-19T19:07:41.595Z,8.77
2023-04-19T19:13:47.907Z,8.91
2023-04-19T19:16:52.585Z,8.86
2023-04-19T19:19:54.532Z,8.84
2023-04-19T19:22:56.479Z,8.91
2023-04-19T19:25:58.068Z,8.78
2023-04-19T19:29:01.037Z,8.72
2023-04-19T19:32:04.982Z,8.86
2023-04-19T19:35:09.655Z,8.90
2023-04-19T19:38:12.080Z,8.86
2023-04-19T19:44:18.636Z,8.92
2023-04-19T19:47:20.253Z,8.90
2023-04-19T19:50:46.663Z,8.92
2023-04-19T19:53:45.674Z,8.89
2023-04-19T19:57:25.190Z,8.82
2023-04-19T20:00:36.837Z,8.80
2023-04-19T20:03:37.612Z,8.73
2023-04-19T20:09:44.135Z,8.75
2023-04-19T20:12:46.916Z,8.61
2023-04-19T20:15:48.515Z,8.67
2023-04-19T20:18:50.113Z,8.68
2023-04-19T20:21:51.646Z,8.61
2023-04-19T20:24:53.192Z,8.61
2023-04-19T20:27:55.047Z,8.60
2023-04-19T20:30:56.576Z,8.46
2023-04-19T20:33:58.133Z,8.39
2023-04-19T20:36:59.638Z,8.23
2023-04-19T20:40:01.229Z,8.35
2023-04-19T20:43:03.292Z,8.16
2023-04-19T20:46:04.937Z,8.27
2023-04-19T20:49:06.493Z,8.25
2023-04-19T20:52:10.623Z,8.06
2023-04-19T20:55:12.231Z,8.09
2023-04-19T20:58:13.848Z,7.93
2023-04-19T21:01:17.498Z,8.00
2023-04-19T21:04:19.256Z,7.93
2023-04-19T21:07:20.984Z,8.03
2023-04-19T21:10:22.539Z,7.83
2023-04-19T21:13:24.047Z,7.84
2023-04-19T21:16:25.600Z,7.86
2023-04-19T21:19:27.166Z,7.96
2023-04-19T21:22:30.089Z,7.88
2023-04-19T21:25:31.645Z,7.83
2023-04-19T21:28:36.144Z,7.64
2023-04-19T21:31:37.725Z,7.63
2023-04-19T21:34:39.292Z,7.68
2023-04-19T21:37:40.851Z,7.67
2023-04-19T21:40:42.708Z,7.57
2023-04-19T21:43:44.400Z,7.39
2023-04-19T21:46:46.282Z,7.47
2023-04-19T21:49:47.962Z,7.49
2023-04-19T21:52:49.478Z,7.39
2023-04-19T21:55:51.204Z,7.35
2023-04-19T21:58:52.832Z,7.22
2023-04-19T22:01:54.407Z,7.16
2023-04-19T22:04:55.916Z,7.28
2023-04-19T22:07:57.853Z,7.44
2023-04-19T22:11:00.351Z,7.32
2023-04-19T22:14:05.046Z,7.42
2023-04-19T22:17:10.074Z,7.14
2023-04-19T22:20:15.821Z,7.16
2023-04-19T22:23:17.390Z,7.07
2023-04-19T22:26:19.577Z,6.92
2023-04-19T22:29:21.081Z,6.75
2023-04-19T22:32:22.816Z,6.80
2023-04-19T22:35:24.517Z,6.82
2023-04-19T22:38:26.586Z,6.71
2023-04-19T22:41:28.196Z,6.26
2023-04-19T22:44:29.772Z,6.36
2023-04-19T22:47:32.979Z,6.19
2023-04-19T22:50:34.642Z,5.97
2023-04-19T22:53:38.680Z,6.23
2023-04-19T22:56:40.395Z,5.96
2023-04-19T22:59:44.537Z,5.90
2023-04-19T23:02:46.199Z,5.91
2023-04-19T23:05:48.013Z,5.83
2023-04-19T23:08:50.521Z,5.51
2023-04-19T23:11:51.907Z,5.14
2023-04-19T23:14:53.434Z,5.09
2023-04-19T23:17:55.026Z,5.11
2023-04-19T23:20:59.477Z,4.96
2023-04-19T23:24:01.053Z,5.03
2023-04-19T23:27:03.480Z,4.83
2023-04-19T23:30:05.821Z,4.84
2023-04-19T23:33:07.491Z,4.75
2023-04-19T23:36:09.183Z,4.67
2023-04-19T23:39:10.813Z,4.70
2023-04-19T23:42:12.303Z,4.65
2023-04-19T23:45:13.850Z,4.52
2023-04-19T23:48:15.580Z,4.56
2023-04-19T23:51:17.076Z,4.36
2023-04-19T23:54:21.297Z,4.07
2023-04-19T23:57:22.851Z,4.19
